createdAt,value
2022-09-28T00:00:09.940Z,8.00
2022-09-28T00:02:57.849Z,8.07
2022-09-28T00:05:44.557Z,8.06
2022-09-28T00:08:30.889Z,8.14
2022-09-28T00:11:18.923Z,8.08
2022-09-28T00:14:07.350Z,8.09
2022-09-28T00:16:53.746Z,7.92
2022-09-28T00:19:41.323Z,8.20
2022-09-28T00:22:27.870Z,8.29
2022-09-28T00:25:16.807Z,8.06
2022-09-28T00:28:03.261Z,8.35
2022-09-28T00:30:49.656Z,8.33
2022-09-28T00:33:35.968Z,8.30
2022-09-28T00:36:23.849Z,8.49
2022-09-28T00:39:10.498Z,8.41
2022-09-28T00:41:56.862Z,8.47
2022-09-28T00:44:45.236Z,8.39
2022-09-28T00:47:49.587Z,8.41
2022-09-28T00:50:37.310Z,8.37
2022-09-28T00:53:27.317Z,8.32
2022-09-28T00:56:17.496Z,8.26
2022-09-28T00:59:04.723Z,8.19
2022-09-28T01:01:51.585Z,8.15
2022-09-28T01:04:39.036Z,8.14
2022-09-28T01:07:25.354Z,8.08
2022-09-28T01:10:13.208Z,7.96
2022-09-28T01:12:59.946Z,7.76
2022-09-28T01:16:00.728Z,7.97
2022-09-28T01:18:56.169Z,7.98
2022-09-28T01:21:51.554Z,7.87
2022-09-28T01:24:43.616Z,7.91
2022-09-28T01:27:34.202Z,7.87
2022-09-28T01:30:22.508Z,7.91
2022-09-28T01:33:12.271Z,8.08
2022-09-28T01:36:01.394Z,8.16
2022-09-28T01:38:49.943Z,8.12
2022-09-28T01:41:38.157Z,8.09
2022-09-28T01:44:26.930Z,8.20
2022-09-28T01:47:16.644Z,8.24
2022-09-28T01:50:08.345Z,8.31
2022-09-28T01:52:57.465Z,8.31
2022-09-28T01:55:46.677Z,8.34
2022-09-28T01:58:37.940Z,8.34
2022-09-28T02:01:30.098Z,8.08
2022-09-28T02:04:19.705Z,8.12
2022-09-28T02:07:09.576Z,8.30
2022-09-28T02:09:59.424Z,8.30
2022-09-28T02:12:48.318Z,8.34
2022-09-28T02:15:37.696Z,8.27
2022-09-28T02:18:25.801Z,8.19
2022-09-28T02:21:15.182Z,8.20
2022-09-28T02:24:04.559Z,8.24
2022-09-28T02:26:52.051Z,8.20
2022-09-28T02:29:38.622Z,8.20
2022-09-28T02:32:25.689Z,8.31
2022-09-28T02:35:15.081Z,8.15
2022-09-28T02:38:01.512Z,8.25
2022-09-28T02:40:51.839Z,8.23
2022-09-28T02:43:46.662Z,8.17
2022-09-28T02:46:36.449Z,8.22
2022-09-28T02:49:30.063Z,8.20
2022-09-28T02:52:29.187Z,7.95
2022-09-28T02:55:21.529Z,7.97
2022-09-28T02:58:25.313Z,7.98
2022-09-28T03:01:21.023Z,8.17
2022-09-28T03:04:13.359Z,7.97
2022-09-28T03:07:02.702Z,7.54
2022-09-28T03:09:56.705Z,7.99
2022-09-28T03:12:44.605Z,7.89
2022-09-28T03:15:32.686Z,7.73
2022-09-28T03:18:19.035Z,7.84
2022-09-28T03:21:06.113Z,7.73
2022-09-28T03:23:52.625Z,7.62
2022-09-28T03:26:40.543Z,7.65
2022-09-28T03:29:27.132Z,7.58
2022-09-28T03:32:13.282Z,7.44
2022-09-28T03:34:59.708Z,7.33
2022-09-28T03:37:46.589Z,7.21
2022-09-28T03:40:33.011Z,7.23
2022-09-28T03:43:20.764Z,7.08
2022-09-28T03:46:07.724Z,7.03
2022-09-28T03:48:54.387Z,6.93
2022-09-28T03:51:40.704Z,7.06
2022-09-28T03:54:27.117Z,6.99
2022-09-28T03:57:13.507Z,6.92
2022-09-28T04:00:01.345Z,6.83
2022-09-28T04:02:47.946Z,6.74
2022-09-28T04:05:34.208Z,6.45
2022-09-28T04:08:21.012Z,6.30
2022-09-28T04:11:07.522Z,6.21
2022-09-28T04:13:54.002Z,6.14
2022-09-28T04:16:41.846Z,5.99
2022-09-28T04:19:28.380Z,5.84
2022-09-28T04:22:14.704Z,5.63
2022-09-28T04:25:00.938Z,5.59
2022-09-28T04:28:04.530Z,5.65
2022-09-28T04:30:51.829Z,5.50
2022-09-28T04:33:39.709Z,5.37
2022-09-28T04:36:26.273Z,5.31
2022-09-28T04:39:13.093Z,4.97
2022-09-28T04:41:59.998Z,5.18
2022-09-28T04:44:46.454Z,5.21
2022-09-28T04:47:32.724Z,5.02
2022-09-28T04:50:20.569Z,5.16
2022-09-28T04:53:07.145Z,5.12
2022-09-28T04:55:58.859Z,5.03
2022-09-28T04:58:49.116Z,4.88
2022-09-28T05:01:38.905Z,5.03
2022-09-28T05:04:26.286Z,5.13
2022-09-28T05:07:14.303Z,4.96
2022-09-28T05:10:01.592Z,4.86
2022-09-28T05:12:48.109Z,4.89
2022-09-28T05:15:35.367Z,4.86
2022-09-28T05:18:21.804Z,4.88
2022-09-28T05:21:11.230Z,4.97
2022-09-28T05:23:59.194Z,5.03
2022-09-28T05:26:45.577Z,5.21
2022-09-28T05:29:32.547Z,5.45
2022-09-28T05:32:19.057Z,5.68
2022-09-28T05:35:06.330Z,5.70
2022-09-28T05:37:52.754Z,5.70
2022-09-28T05:40:40.440Z,5.60
2022-09-28T05:43:26.697Z,5.70
2022-09-28T05:46:13.262Z,5.49
2022-09-28T05:49:00.451Z,5.73
2022-09-28T05:51:46.913Z,5.82
2022-09-28T05:54:33.242Z,6.09
2022-09-28T05:57:20.800Z,6.24
2022-09-28T06:00:09.005Z,6.43
2022-09-28T06:03:00.033Z,6.47
2022-09-28T06:05:47.416Z,6.64
2022-09-28T06:08:34.252Z,6.72
2022-09-28T06:11:20.786Z,6.90
2022-09-28T06:14:08.746Z,6.50
2022-09-28T06:16:55.227Z,6.76
2022-09-28T06:19:41.677Z,7.05
2022-09-28T06:22:28.036Z,7.02
2022-09-28T06:25:14.532Z,7.02
2022-09-28T06:28:03.044Z,6.78
2022-09-28T06:30:50.863Z,7.09
2022-09-28T06:33:38.600Z,7.17
2022-09-28T06:36:25.060Z,7.36
2022-09-28T06:39:11.755Z,7.54
2022-09-28T06:41:57.996Z,7.60
2022-09-28T06:44:44.381Z,7.63
2022-09-28T06:47:33.787Z,7.67
2022-09-28T06:50:20.375Z,7.62
2022-09-28T06:53:09.461Z,7.93
2022-09-28T06:55:57.500Z,8.40
2022-09-28T06:58:44.094Z,8.33
2022-09-28T07:01:30.623Z,8.90
2022-09-28T07:04:18.928Z,9.32
2022-09-28T07:07:06.625Z,9.75
2022-09-28T07:09:55.521Z,9.94
2022-09-28T07:12:43.097Z,10.65
2022-09-28T07:15:31.360Z,10.56
2022-09-28T07:18:20.678Z,10.47
2022-09-28T07:21:26.538Z,10.30
2022-09-28T07:24:16.116Z,10.23
2022-09-28T07:27:05.239Z,10.41
2022-09-28T07:29:53.210Z,10.68
2022-09-28T07:32:40.277Z,10.57
2022-09-28T07:35:26.802Z,11.08
2022-09-28T07:38:14.789Z,11.41
2022-09-28T07:41:14.036Z,11.69
2022-09-28T07:44:05.984Z,11.65
2022-09-28T07:46:52.357Z,11.98
2022-09-28T07:49:38.589Z,12.05
2022-09-28T07:52:26.297Z,12.33
2022-09-28T07:55:13.912Z,12.48
2022-09-28T07:58:01.737Z,12.40
2022-09-28T08:00:49.097Z,12.28
2022-09-28T08:03:36.489Z,12.33
2022-09-28T08:06:22.917Z,12.21
2022-09-28T08:09:09.323Z,12.27
2022-09-28T08:11:59.617Z,12.29
2022-09-28T08:14:45.906Z,12.42
2022-09-28T08:17:32.189Z,12.39
2022-09-28T08:20:35.895Z,12.46
2022-09-28T08:23:23.300Z,12.80
2022-09-28T08:26:14.630Z,13.60
2022-09-28T08:29:03.546Z,14.12
2022-09-28T08:31:50.262Z,14.17
2022-09-28T08:34:37.045Z,14.65
2022-09-28T08:37:23.301Z,15.30
2022-09-28T08:40:16.516Z,15.23
2022-09-28T08:43:06.064Z,14.33
2022-09-28T08:45:54.434Z,14.03
2022-09-28T08:49:01.396Z,13.49
2022-09-28T08:51:58.857Z,13.78
2022-09-28T08:54:48.809Z,14.13
2022-09-28T08:57:38.624Z,14.47
2022-09-28T09:00:33.626Z,14.60
2022-09-28T09:03:24.529Z,14.75
2022-09-28T09:06:19.665Z,14.60
2022-09-28T09:09:11.387Z,14.92
2022-09-28T09:12:05.166Z,15.16
2022-09-28T09:15:22.806Z,15.41
2022-09-28T09:18:20.020Z,15.45
2022-09-28T09:21:12.170Z,15.71
2022-09-28T09:24:03.628Z,15.83
2022-09-28T09:26:55.578Z,14.80
2022-09-28T09:29:55.672Z,15.25
2022-09-28T09:33:07.187Z,14.72
2022-09-28T09:36:04.502Z,14.82
2022-09-28T09:38:59.785Z,14.91
2022-09-28T09:41:57.423Z,14.92
2022-09-28T09:45:09.532Z,14.57
2022-09-28T09:47:59.350Z,14.67
2022-09-28T09:50:49.363Z,14.58
2022-09-28T09:53:38.979Z,14.72
2022-09-28T09:56:31.705Z,14.85
2022-09-28T09:59:23.033Z,15.26
2022-09-28T10:02:24.903Z,15.93
2022-09-28T10:05:20.921Z,15.51
2022-09-28T10:08:16.124Z,15.56
2022-09-28T10:11:08.763Z,16.34
2022-09-28T10:13:57.791Z,16.39
2022-09-28T10:16:45.180Z,16.72
2022-09-28T10:19:34.028Z,16.25
2022-09-28T10:22:25.249Z,15.49
2022-09-28T10:25:13.503Z,15.85
2022-09-28T10:28:01.086Z,15.58
2022-09-28T10:30:49.187Z,15.87
2022-09-28T10:33:36.516Z,16.17
2022-09-28T10:36:25.548Z,16.42
2022-09-28T10:39:24.414Z,17.14
2022-09-28T10:42:12.515Z,17.40
2022-09-28T10:45:02.497Z,17.72
2022-09-28T10:47:50.879Z,17.88
2022-09-28T10:50:37.121Z,17.62
2022-09-28T10:53:23.354Z,18.09
2022-09-28T10:56:21.126Z,18.73
2022-09-28T10:59:24.690Z,18.25
2022-09-28T11:02:21.009Z,17.49
2022-09-28T11:05:20.118Z,18.07
2022-09-28T11:08:08.468Z,18.67
2022-09-28T11:11:09.639Z,18.64
2022-09-28T11:14:00.557Z,18.52
2022-09-28T11:16:46.870Z,17.92
2022-09-28T11:19:33.292Z,17.53
2022-09-28T11:22:30.090Z,17.31
2022-09-28T11:25:24.941Z,17.81
2022-09-28T11:28:23.829Z,17.68
2022-09-28T11:31:12.515Z,17.89
2022-09-28T11:34:05.160Z,17.86
2022-09-28T11:37:05.737Z,17.20
2022-09-28T11:39:59.032Z,17.76
2022-09-28T11:42:52.954Z,17.61
2022-09-28T11:45:50.041Z,18.10
2022-09-28T11:48:40.862Z,17.72
2022-09-28T11:51:29.375Z,17.16
2022-09-28T11:54:23.121Z,16.68
2022-09-28T11:57:16.579Z,16.41
2022-09-28T12:00:05.621Z,16.45
2022-09-28T12:02:54.710Z,16.37
2022-09-28T12:05:44.656Z,16.53
2022-09-28T12:08:33.171Z,15.90
2022-09-28T12:11:23.473Z,16.27
2022-09-28T12:14:16.452Z,16.06
2022-09-28T12:17:08.082Z,16.43
2022-09-28T12:19:59.528Z,15.99
2022-09-28T12:22:49.525Z,15.12
2022-09-28T12:25:42.193Z,15.18
2022-09-28T12:28:35.126Z,15.29
2022-09-28T12:31:26.850Z,16.18
2022-09-28T12:34:13.848Z,16.54
2022-09-28T12:37:12.952Z,16.78
2022-09-28T12:40:13.667Z,17.14
2022-09-28T12:43:10.317Z,16.96
2022-09-28T12:46:11.897Z,17.09
2022-09-28T12:52:38.762Z,17.18
2022-09-28T12:55:43.387Z,17.18
2022-09-28T12:58:59.879Z,17.38
2022-09-28T13:01:58.322Z,17.24
2022-09-28T13:04:38.074Z,17.13
2022-09-28T13:07:07.224Z,17.39
2022-09-28T13:09:43.064Z,16.92
2022-09-28T13:12:27.336Z,16.71
2022-09-28T13:15:28.525Z,16.52
2022-09-28T13:18:05.090Z,16.79
2022-09-28T13:20:52.917Z,16.82
2022-09-28T13:23:22.853Z,16.85
2022-09-28T13:25:56.670Z,16.25
2022-09-28T13:28:27.317Z,16.48
2022-09-28T13:30:56.724Z,16.35
2022-09-28T13:33:31.574Z,16.51
2022-09-28T13:36:03.094Z,16.20
2022-09-28T13:38:32.501Z,16.09
2022-09-28T13:41:15.815Z,15.66
2022-09-28T13:43:55.705Z,15.70
2022-09-28T13:46:29.902Z,15.54
2022-09-28T13:49:06.639Z,15.40
2022-09-28T13:51:44.858Z,15.58
2022-09-28T13:54:29.194Z,15.36
2022-09-28T13:57:04.385Z,15.18
2022-09-28T13:59:33.550Z,15.24
2022-09-28T14:02:07.162Z,14.99
2022-09-28T14:04:55.359Z,15.43
2022-09-28T14:10:20.961Z,15.10
2022-09-28T14:12:50.329Z,14.75
2022-09-28T14:15:41.220Z,14.70
2022-09-28T14:18:15.887Z,14.50
2022-09-28T14:20:51.541Z,14.45
2022-09-28T14:23:58.957Z,14.35
2022-09-28T14:27:02.934Z,14.24
2022-09-28T14:29:31.672Z,14.30
2022-09-28T14:32:00.139Z,14.28
2022-09-28T14:34:36.483Z,14.36
2022-09-28T14:37:23.331Z,14.20
2022-09-28T14:40:10.446Z,14.55
2022-09-28T14:42:38.429Z,14.54
2022-09-28T14:45:21.758Z,14.47
2022-09-28T14:48:14.004Z,14.23
2022-09-28T14:50:42.542Z,14.14
2022-09-28T14:53:14.884Z,14.22
2022-09-28T14:55:50.243Z,13.90
2022-09-28T14:58:25.012Z,13.81
2022-09-28T15:01:01.652Z,13.82
2022-09-28T15:03:31.585Z,13.83
2022-09-28T15:05:59.742Z,13.63
2022-09-28T15:08:37.822Z,13.63
2022-09-28T15:11:07.490Z,13.67
2022-09-28T15:13:35.421Z,13.64
2022-09-28T15:16:07.270Z,13.77
2022-09-28T15:18:52.198Z,13.64
2022-09-28T15:21:20.671Z,13.61
2022-09-28T15:23:49.738Z,13.23
2022-09-28T15:26:27.609Z,13.73
2022-09-28T15:28:56.109Z,13.61
2022-09-28T15:31:26.362Z,13.43
2022-09-28T15:34:12.006Z,13.56
2022-09-28T15:36:41.030Z,13.37
2022-09-28T15:39:15.189Z,13.38
2022-09-28T15:41:45.105Z,13.06
2022-09-28T15:44:30.254Z,13.34
2022-09-28T15:47:13.913Z,13.23
2022-09-28T15:49:46.026Z,13.25
2022-09-28T15:52:26.617Z,13.28
2022-09-28T15:54:55.158Z,13.17
2022-09-28T15:57:37.928Z,12.90
2022-09-28T16:00:08.374Z,12.80
2022-09-28T16:02:36.594Z,12.74
2022-09-28T16:05:05.425Z,12.56
2022-09-28T16:07:38.441Z,12.64
2022-09-28T16:10:33.810Z,12.64
2022-09-28T16:13:17.850Z,12.57
2022-09-28T16:15:45.874Z,12.60
2022-09-28T16:18:20.102Z,12.47
2022-09-28T16:20:49.642Z,12.44
2022-09-28T16:23:21.815Z,12.39
2022-09-28T16:25:52.941Z,12.27
2022-09-28T16:28:49.003Z,12.32
2022-09-28T16:31:33.787Z,12.10
2022-09-28T16:34:11.715Z,12.26
2022-09-28T16:36:47.302Z,12.09
2022-09-28T16:39:16.401Z,12.22
2022-09-28T16:41:48.425Z,12.03
2022-09-28T16:44:23.418Z,11.71
2022-09-28T16:46:53.934Z,12.11
2022-09-28T16:49:23.097Z,12.04
2022-09-28T16:51:51.099Z,12.02
2022-09-28T16:54:37.534Z,11.90
2022-09-28T16:57:06.932Z,11.92
2022-09-28T16:59:38.423Z,11.84
2022-09-28T17:02:35.418Z,11.70
2022-09-28T17:05:06.362Z,11.69
2022-09-28T17:07:34.474Z,11.70
2022-09-28T17:10:02.382Z,11.62
2022-09-28T17:12:30.273Z,11.60
2022-09-28T17:15:00.364Z,11.49
2022-09-28T17:17:31.057Z,11.33
2022-09-28T17:19:59.060Z,11.23
2022-09-28T17:22:27.011Z,11.53
2022-09-28T17:24:55.034Z,11.54
2022-09-28T17:27:23.034Z,11.51
2022-09-28T17:29:51.446Z,11.53
2022-09-28T17:32:21.310Z,11.16
2022-09-28T17:35:00.900Z,11.46
2022-09-28T17:37:37.577Z,11.50
2022-09-28T17:40:18.051Z,11.54
2022-09-28T17:42:46.522Z,11.46
2022-09-28T17:45:14.853Z,11.42
2022-09-28T17:47:44.453Z,11.37
2022-09-28T17:50:23.652Z,11.41
2022-09-28T17:52:53.111Z,11.41
2022-09-28T17:55:22.556Z,11.33
2022-09-28T17:57:50.564Z,11.38
2022-09-28T18:00:19.024Z,11.20
2022-09-28T18:02:48.637Z,11.08
2022-09-28T18:05:16.687Z,11.19
2022-09-28T18:07:47.813Z,11.05
2022-09-28T18:10:17.283Z,11.13
2022-09-28T18:12:45.288Z,11.01
2022-09-28T18:15:13.375Z,11.13
2022-09-28T18:17:41.458Z,11.12
2022-09-28T18:20:12.753Z,11.15
2022-09-28T18:22:40.886Z,10.88
2022-09-28T18:25:09.307Z,10.96
2022-09-28T18:27:37.266Z,10.98
2022-09-28T18:30:06.516Z,10.99
2022-09-28T18:32:36.823Z,11.07
2022-09-28T18:35:05.160Z,11.01
2022-09-28T18:37:37.818Z,10.97
2022-09-28T18:40:06.726Z,10.94
2022-09-28T18:42:35.611Z,11.09
2022-09-28T18:45:03.583Z,11.08
2022-09-28T18:47:31.473Z,10.98
2022-09-28T18:49:59.417Z,10.89
2022-09-28T18:52:27.461Z,10.73
2022-09-28T18:54:56.805Z,10.73
2022-09-28T18:57:24.714Z,10.69
2022-09-28T18:59:52.598Z,10.71
2022-09-28T19:02:20.627Z,10.51
2022-09-28T19:04:48.637Z,10.54
2022-09-28T19:07:16.903Z,10.37
2022-09-28T19:09:45.136Z,10.36
2022-09-28T19:12:14.985Z,10.09
2022-09-28T19:14:43.112Z,10.18
2022-09-28T19:17:12.010Z,10.22
2022-09-28T19:19:40.966Z,10.27
2022-09-28T19:22:08.883Z,10.36
2022-09-28T19:24:36.793Z,10.40
2022-09-28T19:27:04.855Z,10.44
2022-09-28T19:29:34.424Z,10.36
2022-09-28T19:32:02.714Z,10.30
2022-09-28T19:34:30.617Z,10.15
2022-09-28T19:36:58.572Z,10.31
2022-09-28T19:39:26.526Z,10.38
2022-09-28T19:41:57.194Z,10.28
2022-09-28T19:44:27.024Z,10.30
2022-09-28T19:46:57.597Z,10.29
2022-09-28T19:49:27.097Z,10.33
2022-09-28T19:54:46.193Z,10.47
2022-09-28T19:57:15.942Z,10.51
2022-09-28T19:59:44.182Z,10.30
2022-09-28T20:02:14.151Z,10.14
2022-09-28T20:04:42.105Z,10.20
2022-09-28T20:07:10.055Z,10.08
2022-09-28T20:09:37.954Z,10.14
2022-09-28T20:12:06.048Z,10.15
2022-09-28T20:14:38.017Z,10.32
2022-09-28T20:17:08.374Z,10.05
2022-09-28T20:19:37.805Z,9.95
2022-09-28T20:22:05.741Z,9.90
2022-09-28T20:24:33.875Z,9.99
2022-09-28T20:27:02.540Z,9.93
2022-09-28T20:29:33.340Z,9.88
2022-09-28T20:32:01.906Z,9.93
2022-09-28T20:34:29.811Z,9.84
2022-09-28T20:36:59.240Z,9.82
2022-09-28T20:39:27.165Z,9.75
2022-09-28T20:41:55.053Z,9.81
2022-09-28T20:44:23.006Z,9.77
2022-09-28T20:46:51.454Z,9.59
2022-09-28T20:49:19.410Z,9.64
2022-09-28T20:51:47.377Z,9.56
2022-09-28T20:54:16.910Z,9.42
2022-09-28T20:56:44.921Z,9.42
2022-09-28T20:59:13.216Z,9.19
2022-09-28T21:01:41.814Z,9.37
2022-09-28T21:04:11.071Z,9.29
2022-09-28T21:06:40.884Z,9.42
2022-09-28T21:09:10.462Z,9.25
2022-09-28T21:11:40.312Z,9.41
2022-09-28T21:14:09.667Z,9.26
2022-09-28T21:16:37.636Z,9.71
2022-09-28T21:19:05.829Z,9.62
2022-09-28T21:21:33.990Z,9.51
2022-09-28T21:24:02.374Z,9.52
2022-09-28T21:26:31.273Z,9.48
2022-09-28T21:29:01.477Z,9.39
2022-09-28T21:31:33.469Z,9.33
2022-09-28T21:34:01.742Z,9.53
2022-09-28T21:36:29.644Z,9.58
2022-09-28T21:38:57.745Z,9.61
2022-09-28T21:41:26.173Z,9.54
2022-09-28T21:43:54.245Z,9.43
2022-09-28T21:46:24.768Z,9.32
2022-09-28T21:48:53.778Z,9.26
2022-09-28T21:51:21.905Z,9.16
2022-09-28T21:53:50.278Z,9.17
2022-09-28T21:56:18.668Z,8.97
2022-09-28T21:58:46.760Z,9.18
2022-09-28T22:01:19.517Z,9.08
2022-09-28T22:03:50.535Z,9.10
2022-09-28T22:06:19.822Z,9.23
2022-09-28T22:08:48.830Z,9.11
2022-09-28T22:11:18.377Z,9.18
2022-09-28T22:13:47.639Z,9.19
2022-09-28T22:16:17.219Z,9.24
2022-09-28T22:18:45.545Z,9.35
2022-09-28T22:21:19.322Z,9.37
2022-09-28T22:23:47.494Z,9.17
2022-09-28T22:26:19.139Z,8.78
2022-09-28T22:28:48.275Z,9.06
2022-09-28T22:31:16.463Z,9.00
2022-09-28T22:33:44.567Z,9.06
2022-09-28T22:36:14.997Z,8.99
2022-09-28T22:38:44.746Z,9.12
2022-09-28T22:41:13.121Z,9.23
2022-09-28T22:43:41.007Z,8.94
2022-09-28T22:46:12.540Z,8.97
2022-09-28T22:48:40.650Z,8.83
2022-09-28T22:51:08.693Z,8.86
2022-09-28T22:53:36.825Z,8.57
2022-09-28T22:56:07.518Z,8.89
2022-09-28T22:58:35.913Z,9.09
2022-09-28T23:01:08.220Z,8.98
2022-09-28T23:03:36.970Z,8.94
2022-09-28T23:06:05.100Z,8.94
2022-09-28T23:08:33.136Z,8.93
2022-09-28T23:11:01.564Z,8.92
2022-09-28T23:13:31.170Z,8.53
2022-09-28T23:16:00.469Z,8.58
2022-09-28T23:18:29.977Z,8.32
2022-09-28T23:20:59.529Z,8.50
2022-09-28T23:23:27.757Z,8.48
2022-09-28T23:25:56.577Z,8.45
2022-09-28T23:28:26.034Z,8.53
2022-09-28T23:30:55.346Z,8.60
2022-09-28T23:33:23.688Z,8.71
2022-09-28T23:35:51.729Z,8.59
2022-09-28T23:38:19.733Z,8.75
2022-09-28T23:40:48.085Z,8.73
2022-09-28T23:43:16.167Z,8.70
2022-09-28T23:45:44.140Z,8.52
2022-09-28T23:48:14.972Z,8.60
2022-09-28T23:50:43.439Z,8.45
2022-09-28T23:53:11.897Z,8.40
2022-09-28T23:55:39.785Z,8.39
2022-09-28T23:58:07.730Z,8.54
